createdAt,value
2023-05-24T00:01:25.864Z,4.00
2023-05-24T00:04:15.159Z,4.00
2023-05-24T00:07:05.397Z,4.57
2023-05-24T00:09:54.196Z,4.40
2023-05-24T00:12:42.805Z,4.67
2023-05-24T00:15:31.311Z,4.37
2023-05-24T00:18:19.894Z,4.47
2023-05-24T00:21:08.635Z,4.10
2023-05-24T00:23:58.499Z,4.07
2023-05-24T00:26:47.078Z,4.87
2023-05-24T00:29:35.702Z,4.93
2023-05-24T00:32:24.373Z,4.17
2023-05-24T00:35:12.876Z,4.80
2023-05-24T00:38:01.680Z,4.30
2023-05-24T00:40:51.571Z,5.70
2023-05-24T00:43:40.122Z,4.30
2023-05-24T00:46:30.580Z,5.43
2023-05-24T00:49:20.038Z,4.60
2023-05-24T00:52:09.815Z,4.80
2023-05-24T00:54:58.347Z,4.80
2023-05-24T00:57:48.174Z,5.20
2023-05-24T01:00:37.262Z,4.90
2023-05-24T01:03:25.871Z,4.53
2023-05-24T01:06:15.959Z,4.77
2023-05-24T01:09:13.120Z,5.03
2023-05-24T01:12:11.441Z,5.60
2023-05-24T01:15:10.268Z,5.83
2023-05-24T01:18:05.975Z,5.17
2023-05-24T01:21:02.753Z,5.67
2023-05-24T01:23:59.301Z,5.73
2023-05-24T01:27:02.880Z,5.67
2023-05-24T01:29:53.538Z,5.47
2023-05-24T01:32:42.089Z,5.00
2023-05-24T01:35:30.604Z,4.87
2023-05-24T01:38:19.133Z,5.77
2023-05-24T01:41:17.636Z,5.30
2023-05-24T01:44:14.292Z,4.90
2023-05-24T01:47:06.042Z,5.07
2023-05-24T01:49:56.198Z,4.83
2023-05-24T01:52:46.165Z,5.63
2023-05-24T01:55:35.915Z,5.33
2023-05-24T01:58:25.148Z,5.83
2023-05-24T02:01:15.442Z,5.13
2023-05-24T02:04:04.248Z,4.90
2023-05-24T02:06:52.698Z,5.60
2023-05-24T02:09:41.178Z,5.50
2023-05-24T02:12:29.646Z,5.73
2023-05-24T02:15:18.188Z,4.97
2023-05-24T02:18:08.776Z,5.20
2023-05-24T02:20:57.281Z,5.83
2023-05-24T02:23:45.974Z,5.37
2023-05-24T02:26:34.505Z,5.27
2023-05-24T02:29:23.466Z,5.70
2023-05-24T02:32:11.989Z,5.30
2023-05-24T02:35:02.993Z,5.10
2023-05-24T02:37:51.481Z,6.50
2023-05-24T02:40:40.003Z,5.30
2023-05-24T02:43:28.554Z,5.00
2023-05-24T02:46:17.099Z,6.00
2023-05-24T02:49:14.648Z,5.20
2023-05-24T02:52:04.743Z,5.37
2023-05-24T02:54:54.288Z,5.20
2023-05-24T02:57:43.038Z,5.53
2023-05-24T03:00:32.012Z,5.90
2023-05-24T03:03:20.617Z,5.83
2023-05-24T03:06:09.174Z,5.40
2023-05-24T03:08:59.327Z,6.10
2023-05-24T03:11:47.882Z,6.10
2023-05-24T03:14:36.393Z,5.50
2023-05-24T03:17:25.148Z,6.40
2023-05-24T03:20:13.929Z,6.23
2023-05-24T03:23:02.502Z,5.97
2023-05-24T03:25:52.384Z,5.83
2023-05-24T03:28:41.912Z,6.33
2023-05-24T03:31:30.705Z,6.90
2023-05-24T03:34:19.577Z,6.57
2023-05-24T03:37:08.096Z,5.47
2023-05-24T03:39:56.579Z,5.90
2023-05-24T03:42:46.489Z,6.00
2023-05-24T03:45:39.606Z,5.67
2023-05-24T03:48:29.018Z,5.30
2023-05-24T03:51:17.532Z,6.07
2023-05-24T03:54:06.470Z,6.50
2023-05-24T03:56:55.309Z,5.67
2023-05-24T03:59:45.237Z,5.90
2023-05-24T04:02:33.819Z,6.67
2023-05-24T04:05:26.809Z,5.70
2023-05-24T04:08:15.414Z,6.30
2023-05-24T04:11:03.969Z,6.50
2023-05-24T04:13:55.302Z,5.67
2023-05-24T04:16:45.268Z,5.40
2023-05-24T04:19:33.906Z,5.83
2023-05-24T04:22:24.264Z,5.40
2023-05-24T04:25:14.104Z,6.17
2023-05-24T04:28:03.951Z,5.50
2023-05-24T04:30:53.777Z,5.43
2023-05-24T04:33:43.763Z,5.40
2023-05-24T04:36:34.018Z,6.63
2023-05-24T04:39:23.686Z,5.57
2023-05-24T04:42:12.946Z,5.90
2023-05-24T04:45:04.379Z,5.33
2023-05-24T04:47:52.999Z,6.13
2023-05-24T04:50:43.105Z,6.60
2023-05-24T04:53:32.892Z,5.67
2023-05-24T04:56:21.611Z,6.13
2023-05-24T04:59:10.237Z,6.10
2023-05-24T05:01:58.857Z,5.13
2023-05-24T05:04:47.437Z,6.13
2023-05-24T05:07:38.375Z,6.07
2023-05-24T05:10:27.156Z,5.80
2023-05-24T05:13:15.948Z,5.90
2023-05-24T05:16:05.424Z,5.83
2023-05-24T05:18:53.961Z,5.70
2023-05-24T05:21:42.466Z,5.43
2023-05-24T05:24:32.307Z,5.27
2023-05-24T05:27:21.026Z,6.37
2023-05-24T05:30:10.469Z,5.37
2023-05-24T05:32:59.373Z,6.13
2023-05-24T05:35:47.944Z,5.27
2023-05-24T05:38:36.517Z,5.80
2023-05-24T05:41:26.381Z,5.87
2023-05-24T05:44:15.014Z,4.87
2023-05-24T05:47:04.011Z,6.13
2023-05-24T05:49:52.854Z,5.80
2023-05-24T05:52:41.494Z,5.13
2023-05-24T05:55:30.259Z,6.00
2023-05-24T05:58:20.142Z,5.43
2023-05-24T06:01:08.723Z,5.87
2023-05-24T06:03:57.263Z,5.87
2023-05-24T06:06:49.611Z,6.50
2023-05-24T06:09:38.425Z,8.03
2023-05-24T06:12:27.013Z,6.17
2023-05-24T06:15:17.261Z,5.80
2023-05-24T06:18:06.143Z,6.40
2023-05-24T06:20:54.802Z,7.53
2023-05-24T06:23:44.395Z,5.97
2023-05-24T06:26:33.325Z,4.57
2023-05-24T06:29:22.967Z,5.33
2023-05-24T06:32:12.933Z,4.70
2023-05-24T06:35:01.453Z,4.90
2023-05-24T06:37:49.964Z,5.33
2023-05-24T06:40:38.519Z,5.97
2023-05-24T06:43:27.116Z,5.77
2023-05-24T06:46:15.770Z,5.57
2023-05-24T06:49:05.770Z,5.80
2023-05-24T06:51:54.437Z,5.00
2023-05-24T06:54:43.250Z,5.57
2023-05-24T06:57:31.920Z,5.47
2023-05-24T07:00:21.581Z,5.80
2023-05-24T07:03:10.543Z,4.83
2023-05-24T07:06:00.534Z,5.40
2023-05-24T07:08:49.102Z,5.67
2023-05-24T07:11:37.816Z,5.27
2023-05-24T07:14:27.421Z,6.00
2023-05-24T07:17:16.181Z,5.00
2023-05-24T07:20:10.177Z,6.40
2023-05-24T07:23:01.160Z,5.30
2023-05-24T07:25:49.968Z,5.90
2023-05-24T07:28:40.479Z,5.30
2023-05-24T07:31:31.329Z,5.50
2023-05-24T07:34:20.748Z,5.30
2023-05-24T07:37:09.532Z,5.73
2023-05-24T07:39:59.830Z,5.00
2023-05-24T07:42:48.666Z,5.13
2023-05-24T07:45:37.390Z,5.43
2023-05-24T07:48:26.221Z,5.27
2023-05-24T07:51:14.854Z,4.73
2023-05-24T07:54:03.710Z,5.33
2023-05-24T07:56:53.958Z,5.60
2023-05-24T07:59:42.934Z,5.50
2023-05-24T08:02:32.070Z,5.07
2023-05-24T08:05:20.929Z,4.90
2023-05-24T08:08:09.622Z,4.70
2023-05-24T08:10:58.237Z,4.53
2023-05-24T08:13:48.175Z,5.33
2023-05-24T08:16:36.789Z,4.93
2023-05-24T08:19:25.384Z,5.83
2023-05-24T08:22:13.999Z,4.60
2023-05-24T08:25:02.545Z,4.70
2023-05-24T08:27:52.112Z,5.40
2023-05-24T08:30:42.215Z,5.07
2023-05-24T08:33:30.818Z,4.77
2023-05-24T08:36:19.581Z,4.27
2023-05-24T08:39:09.320Z,4.10
2023-05-24T08:42:08.600Z,3.63
2023-05-24T08:45:05.621Z,3.90
2023-05-24T08:47:56.472Z,4.40
2023-05-24T08:50:45.652Z,4.03
2023-05-24T08:53:36.575Z,3.67
2023-05-24T08:56:26.815Z,4.10
2023-05-24T08:59:15.449Z,3.80
2023-05-24T09:02:06.162Z,4.03
2023-05-24T09:04:56.802Z,4.47
2023-05-24T09:07:46.345Z,4.10
2023-05-24T09:10:49.362Z,5.07
2023-05-24T09:13:43.063Z,4.17
2023-05-24T09:16:31.796Z,4.50
2023-05-24T09:19:21.177Z,4.27
2023-05-24T09:22:11.276Z,3.43
2023-05-24T09:25:01.784Z,4.50
2023-05-24T09:27:51.676Z,4.43
2023-05-24T09:30:40.280Z,3.33
2023-05-24T09:33:32.428Z,4.30
2023-05-24T09:36:20.982Z,4.23
2023-05-24T09:39:11.574Z,4.20
2023-05-24T09:42:00.100Z,3.97
2023-05-24T09:44:48.796Z,4.40
2023-05-24T09:47:38.550Z,4.43
2023-05-24T09:50:28.249Z,4.47
2023-05-24T09:53:18.228Z,4.50
2023-05-24T09:56:09.370Z,3.80
2023-05-24T09:58:58.087Z,4.07
2023-05-24T10:01:47.375Z,4.30
2023-05-24T10:04:36.378Z,3.50
2023-05-24T10:07:25.392Z,3.40
2023-05-24T10:10:13.914Z,4.00
2023-05-24T10:13:04.350Z,4.07
2023-05-24T10:15:52.872Z,4.07
2023-05-24T10:18:41.488Z,3.40
2023-05-24T10:21:32.897Z,3.93
2023-05-24T10:24:24.929Z,4.10
2023-05-24T10:27:15.400Z,3.73
2023-05-24T10:30:13.828Z,3.80
2023-05-24T10:33:03.166Z,4.03
2023-05-24T10:35:52.070Z,3.53
2023-05-24T10:38:41.440Z,2.67
2023-05-24T10:41:30.212Z,3.60
2023-05-24T10:44:20.387Z,4.40
2023-05-24T10:47:14.274Z,3.27
2023-05-24T10:50:17.821Z,2.97
2023-05-24T10:53:13.791Z,3.83
2023-05-24T10:56:04.130Z,3.60
2023-05-24T10:59:02.418Z,3.60
2023-05-24T11:01:56.500Z,4.10
2023-05-24T11:04:49.202Z,3.77
2023-05-24T11:07:42.773Z,3.43
2023-05-24T11:10:32.271Z,4.10
2023-05-24T11:13:21.636Z,4.40
2023-05-24T11:16:10.550Z,4.17
2023-05-24T11:18:59.448Z,4.20
2023-05-24T11:21:50.486Z,2.50
2023-05-24T11:24:42.274Z,3.30
2023-05-24T11:27:31.972Z,3.83
2023-05-24T11:30:20.643Z,3.83
2023-05-24T11:33:16.081Z,3.80
2023-05-24T11:36:05.046Z,3.27
2023-05-24T11:38:56.733Z,4.23
2023-05-24T11:41:45.554Z,3.80
2023-05-24T11:44:35.218Z,4.33
2023-05-24T11:47:24.891Z,3.87
2023-05-24T11:50:16.713Z,3.60
2023-05-24T11:53:11.615Z,3.13
2023-05-24T11:56:01.489Z,4.10
2023-05-24T11:58:50.987Z,4.03
2023-05-24T12:01:39.531Z,4.23
2023-05-24T12:04:29.030Z,3.80
2023-05-24T12:07:17.780Z,3.37
2023-05-24T12:10:08.151Z,4.37
2023-05-24T12:12:58.054Z,3.90
2023-05-24T12:15:46.639Z,3.47
2023-05-24T12:18:38.658Z,5.23
2023-05-24T12:21:33.111Z,5.10
2023-05-24T12:24:21.601Z,4.33
2023-05-24T12:27:10.408Z,3.50
2023-05-24T12:30:09.925Z,4.37
2023-05-24T12:32:59.518Z,4.00
2023-05-24T12:35:49.915Z,4.10
2023-05-24T12:38:38.569Z,2.90
2023-05-24T12:41:27.842Z,3.40
2023-05-24T12:44:16.408Z,3.70
2023-05-24T12:47:08.529Z,4.67
2023-05-24T12:49:57.402Z,4.03
2023-05-24T12:52:47.412Z,3.83
2023-05-24T12:55:36.248Z,4.10
2023-05-24T12:58:25.144Z,4.90
2023-05-24T13:01:13.787Z,3.90
2023-05-24T13:04:03.754Z,3.63
2023-05-24T13:06:52.267Z,4.00
2023-05-24T13:09:40.839Z,4.20
2023-05-24T13:12:29.440Z,3.00
2023-05-24T13:15:19.363Z,3.50
2023-05-24T13:18:08.828Z,3.60
2023-05-24T13:21:00.475Z,3.67
2023-05-24T13:23:49.400Z,4.00
2023-05-24T13:26:38.767Z,3.30
2023-05-24T13:29:39.532Z,3.40
2023-05-24T13:32:32.109Z,3.30
2023-05-24T13:35:21.461Z,4.00
2023-05-24T13:38:11.410Z,3.30
2023-05-24T13:41:00.040Z,3.40
2023-05-24T13:43:48.885Z,3.27
2023-05-24T13:46:37.649Z,3.20
2023-05-24T13:49:26.606Z,3.50
2023-05-24T13:52:15.361Z,3.93
2023-05-24T13:55:06.213Z,3.20
2023-05-24T13:57:55.425Z,3.00
2023-05-24T14:00:44.154Z,3.40
2023-05-24T14:03:33.049Z,3.43
2023-05-24T14:06:22.222Z,4.33
2023-05-24T14:09:10.911Z,3.70
2023-05-24T14:12:03.275Z,3.50
2023-05-24T14:17:43.217Z,2.87
2023-05-24T14:20:32.750Z,3.40
2023-05-24T14:23:21.444Z,3.20
2023-05-24T14:26:10.117Z,3.73
2023-05-24T14:29:00.019Z,3.83
2023-05-24T14:31:48.621Z,2.57
2023-05-24T14:34:37.395Z,3.87
2023-05-24T14:37:25.999Z,3.47
2023-05-24T14:40:17.000Z,3.00
2023-05-24T14:43:10.083Z,3.83
2023-05-24T14:46:00.317Z,3.30
2023-05-24T14:48:49.126Z,2.60
2023-05-24T14:51:38.312Z,3.30
2023-05-24T14:54:27.357Z,3.87
2023-05-24T14:57:16.097Z,3.50
2023-05-24T15:00:05.158Z,2.70
2023-05-24T15:02:55.116Z,3.93
2023-05-24T15:05:44.204Z,3.60
2023-05-24T15:08:32.749Z,2.90
2023-05-24T15:11:22.955Z,4.37
2023-05-24T15:14:11.584Z,3.47
2023-05-24T15:17:00.283Z,3.73
2023-05-24T15:19:56.628Z,3.73
2023-05-24T15:22:45.849Z,3.20
2023-05-24T15:25:34.429Z,3.50
2023-05-24T15:28:26.054Z,3.30
2023-05-24T15:31:15.153Z,3.80
2023-05-24T15:34:04.929Z,3.33
2023-05-24T15:36:54.840Z,3.60
2023-05-24T15:39:43.330Z,3.43
2023-05-24T15:42:32.221Z,3.40
2023-05-24T15:45:21.199Z,3.47
2023-05-24T15:48:10.078Z,3.43
2023-05-24T15:51:53.567Z,3.27
2023-05-24T15:54:09.873Z,3.67
2023-05-24T15:57:00.486Z,4.10
2023-05-24T15:59:49.016Z,3.63
2023-05-24T16:02:37.666Z,3.73
2023-05-24T16:05:26.914Z,3.80
2023-05-24T16:08:16.177Z,3.77
2023-05-24T16:11:08.372Z,3.77
2023-05-24T16:13:57.321Z,3.57
2023-05-24T16:16:45.963Z,4.10
2023-05-24T16:19:34.510Z,4.47
2023-05-24T16:22:23.894Z,4.37
2023-05-24T16:25:12.417Z,5.13
2023-05-24T16:28:03.604Z,3.73
2023-05-24T16:30:55.672Z,4.73
2023-05-24T16:33:45.142Z,4.13
2023-05-24T16:36:34.003Z,3.70
2023-05-24T16:39:22.476Z,3.90
2023-05-24T16:42:11.089Z,5.00
2023-05-24T16:45:00.990Z,3.60
2023-05-24T16:47:49.648Z,4.57
2023-05-24T16:50:38.232Z,4.33
2023-05-24T16:53:27.823Z,4.27
2023-05-24T16:56:16.689Z,3.00
2023-05-24T16:59:05.304Z,3.90
2023-05-24T17:01:55.530Z,3.53
2023-05-24T17:04:44.136Z,3.67
2023-05-24T17:07:32.877Z,4.00
2023-05-24T17:10:21.607Z,4.00
2023-05-24T17:13:10.192Z,4.03
2023-05-24T17:15:59.948Z,4.07
2023-05-24T17:18:50.143Z,3.70
2023-05-24T17:21:38.686Z,3.73
2023-05-24T17:24:27.877Z,4.60
2023-05-24T17:27:19.889Z,3.70
2023-05-24T17:30:10.938Z,3.47
2023-05-24T17:32:59.522Z,3.40
2023-05-24T17:35:49.460Z,4.33
2023-05-24T17:38:39.007Z,4.20
2023-05-24T17:41:27.845Z,4.13
2023-05-24T17:44:16.408Z,3.73
2023-05-24T17:47:05.659Z,4.17
2023-05-24T17:49:54.573Z,3.30
2023-05-24T17:52:44.424Z,3.90
2023-05-24T17:55:33.046Z,4.23
2023-05-24T17:58:21.559Z,3.67
2023-05-24T18:01:11.730Z,4.10
2023-05-24T18:04:00.411Z,4.37
2023-05-24T18:06:49.037Z,4.00
2023-05-24T18:09:38.938Z,4.27
2023-05-24T18:12:27.414Z,4.17
2023-05-24T18:15:16.253Z,3.43
2023-05-24T18:18:05.123Z,4.20
2023-05-24T18:20:56.634Z,4.40
2023-05-24T18:23:45.166Z,4.60
2023-05-24T18:26:35.054Z,4.03
2023-05-24T18:29:23.789Z,3.83
2023-05-24T18:32:12.392Z,4.43
2023-05-24T18:35:01.041Z,4.30
2023-05-24T18:37:49.586Z,4.77
2023-05-24T18:40:38.063Z,4.23
2023-05-24T18:43:28.092Z,4.60
2023-05-24T18:46:16.838Z,4.57
2023-05-24T18:49:08.281Z,4.27
2023-05-24T18:51:56.998Z,3.77
2023-05-24T18:54:45.555Z,4.00
2023-05-24T18:57:34.082Z,3.90
2023-05-24T19:00:24.525Z,3.60
2023-05-24T19:03:13.305Z,3.57
2023-05-24T19:06:01.979Z,3.70
2023-05-24T19:08:50.519Z,4.10
2023-05-24T19:11:39.057Z,3.67
2023-05-24T19:14:27.609Z,3.77
2023-05-24T19:17:17.471Z,3.20
2023-05-24T19:20:07.327Z,3.53
2023-05-24T19:22:56.397Z,4.27
2023-05-24T19:25:47.834Z,4.30
2023-05-24T19:28:40.137Z,3.60
2023-05-24T19:31:29.551Z,3.43
2023-05-24T19:34:19.440Z,3.83
2023-05-24T19:37:08.001Z,4.33
2023-05-24T19:39:56.585Z,3.97
2023-05-24T19:42:45.141Z,4.40
2023-05-24T19:45:33.933Z,3.50
2023-05-24T19:48:22.577Z,4.10
2023-05-24T19:51:13.282Z,4.03
2023-05-24T19:54:01.954Z,3.47
2023-05-24T19:56:51.976Z,4.53
2023-05-24T19:59:40.630Z,4.67
2023-05-24T20:02:29.371Z,3.40
2023-05-24T20:05:18.459Z,3.50
2023-05-24T20:08:08.633Z,4.57
2023-05-24T20:10:57.888Z,3.77
2023-05-24T20:13:46.435Z,4.10
2023-05-24T20:16:35.020Z,3.67
2023-05-24T20:19:23.528Z,12.30
2023-05-24T20:22:12.488Z,8.30
2023-05-24T20:25:02.447Z,7.57
2023-05-24T20:27:51.277Z,5.90
2023-05-24T20:30:40.080Z,4.93
2023-05-24T20:33:28.600Z,5.53
2023-05-24T20:36:17.148Z,5.60
2023-05-24T20:39:06.608Z,5.13
2023-05-24T20:41:58.321Z,4.80
2023-05-24T20:44:47.077Z,4.37
2023-05-24T20:47:35.569Z,5.30
2023-05-24T20:50:24.177Z,4.70
2023-05-24T20:53:12.678Z,4.63
2023-05-24T20:56:01.905Z,4.00
2023-05-24T20:58:53.383Z,4.40
2023-05-24T21:01:42.310Z,4.10
2023-05-24T21:04:31.226Z,4.50
2023-05-24T21:07:19.771Z,5.07
2023-05-24T21:10:09.339Z,4.93
2023-05-24T21:12:57.854Z,5.50
2023-05-24T21:15:47.861Z,4.27
2023-05-24T21:18:36.617Z,4.10
2023-05-24T21:21:25.175Z,4.10
2023-05-24T21:24:15.789Z,5.20
2023-05-24T21:27:04.511Z,5.00
2023-05-24T21:29:53.003Z,4.67
2023-05-24T21:32:42.983Z,5.40
2023-05-24T21:35:32.577Z,5.73
2023-05-24T21:38:21.409Z,5.23
2023-05-24T21:41:09.980Z,4.60
2023-05-24T21:43:58.532Z,5.20
2023-05-24T21:46:47.133Z,4.93
2023-05-24T21:49:37.024Z,5.10
2023-05-24T21:52:25.577Z,5.20
2023-05-24T21:55:14.171Z,5.00
2023-05-24T21:58:02.721Z,5.77
2023-05-24T22:00:51.442Z,4.93
2023-05-24T22:03:40.349Z,5.37
2023-05-24T22:06:30.358Z,5.87
2023-05-24T22:09:19.122Z,5.83
2023-05-24T22:12:07.798Z,5.50
2023-05-24T22:14:56.346Z,6.10
2023-05-24T22:17:44.999Z,5.57
2023-05-24T22:20:36.481Z,6.23
2023-05-24T22:23:26.689Z,5.80
2023-05-24T22:26:17.146Z,5.23
2023-05-24T22:29:05.672Z,5.10
2023-05-24T22:31:54.190Z,5.03
2023-05-24T22:34:42.770Z,5.13
2023-05-24T22:37:31.323Z,5.30
2023-05-24T22:40:21.276Z,5.43
2023-05-24T22:43:09.774Z,5.57
2023-05-24T22:45:58.360Z,4.80
2023-05-24T22:48:49.866Z,4.93
2023-05-24T22:51:38.774Z,4.03
2023-05-24T22:54:27.223Z,5.40
2023-05-24T22:57:21.586Z,5.63
2023-05-24T23:00:11.753Z,5.23
2023-05-24T23:03:00.360Z,5.00
2023-05-24T23:05:48.864Z,5.03
2023-05-24T23:08:37.459Z,6.70
2023-05-24T23:11:26.377Z,5.07
2023-05-24T23:14:16.941Z,5.13
2023-05-24T23:17:06.068Z,5.57
2023-05-24T23:19:54.709Z,5.17
2023-05-24T23:22:43.579Z,5.87
2023-05-24T23:25:32.269Z,5.93
2023-05-24T23:28:21.232Z,5.93
2023-05-24T23:31:11.290Z,5.70
2023-05-24T23:33:59.893Z,6.00
2023-05-24T23:36:48.392Z,5.93
2023-05-24T23:39:37.106Z,5.40
2023-05-24T23:42:26.312Z,6.37
2023-05-24T23:45:16.169Z,6.27
2023-05-24T23:48:06.552Z,5.97
2023-05-24T23:50:55.175Z,5.47
2023-05-24T23:53:43.647Z,5.90
2023-05-24T23:56:32.181Z,6.23
2023-05-24T23:59:20.796Z,6.60
